Time;durP1;ratioP1;P1;durP2;ratioP2;P2;SDS_P1;SDS_P2;PMS_P1;PMS_P2;Temp;Humidity;BMP_temperature;BMP_pressure;BME280_temperature;BME280_humidity;BME280_pressure;Samples;Min_cycle;Max_cycle;Signal;HPM_P1;HPM_P2
2022/02/15 00:02:09;;;;;;;10.43;4.68;;;8.50;99.90;;;;;;5085261;28;20058;-75
2022/02/15 00:04:34;;;;;;;14.60;5.13;;;8.50;99.90;;;;;;5093051;28;20020;-73
2022/02/15 00:07:00;;;;;;;12.30;4.47;;;8.60;99.90;;;;;;5090605;28;20057;-74
2022/02/15 00:09:25;;;;;;;18.85;4.85;;;8.60;99.90;;;;;;5092064;28;20061;-73
2022/02/15 00:11:51;;;;;;;13.60;4.55;;;8.60;99.90;;;;;;5090135;28;20031;-73
2022/02/15 00:14:17;;;;;;;9.98;4.38;;;8.50;99.90;;;;;;5087122;28;20415;-73
2022/02/15 00:16:44;;;;;;;10.55;4.63;;;8.40;99.90;;;;;;5084301;28;20027;-73
2022/02/15 00:19:09;;;;;;;7.18;4.30;;;8.40;99.90;;;;;;5092077;28;20035;-73
2022/02/15 00:21:35;;;;;;;12.02;4.72;;;8.50;99.90;;;;;;5091473;28;20024;-73
2022/02/15 00:24:01;;;;;;;11.60;4.18;;;8.50;99.90;;;;;;5084573;28;20066;-73
2022/02/15 00:26:27;;;;;;;9.73;4.30;;;8.50;99.90;;;;;;5091963;28;20365;-73
2022/02/15 00:28:53;;;;;;;11.95;4.68;;;8.50;99.90;;;;;;5088626;28;20024;-73
2022/02/15 00:31:19;;;;;;;18.73;5.63;;;8.50;99.90;;;;;;5094926;28;20031;-73
2022/02/15 00:33:45;;;;;;;9.20;4.60;;;8.50;99.90;;;;;;5089838;28;20040;-73
2022/02/15 00:36:10;;;;;;;13.02;4.95;;;8.60;99.90;;;;;;5091133;28;20043;-73
2022/02/15 00:38:36;;;;;;;12.75;5.28;;;8.50;99.90;;;;;;5085499;28;20028;-73
2022/02/15 00:41:03;;;;;;;13.70;5.03;;;8.50;99.90;;;;;;5094257;28;20463;-73
2022/02/15 00:43:28;;;;;;;13.98;5.38;;;8.50;99.90;;;;;;5091437;28;20036;-73
2022/02/15 00:45:54;;;;;;;12.32;5.63;;;8.60;99.90;;;;;;5091818;28;20533;-73
2022/02/15 00:48:20;;;;;;;10.90;5.40;;;8.60;99.90;;;;;;5091117;28;20042;-73
2022/02/15 00:50:45;;;;;;;12.85;5.93;;;8.60;99.90;;;;;;5091243;28;20028;-73
2022/02/15 00:53:11;;;;;;;14.73;6.55;;;8.50;99.90;;;;;;5091240;28;20036;-72
2022/02/15 00:55:37;;;;;;;13.30;5.78;;;8.50;99.90;;;;;;5093869;28;20030;-73
2022/02/15 00:58:02;;;;;;;16.60;6.20;;;8.60;99.90;;;;;;5092290;28;20051;-72
2022/02/15 01:00:28;;;;;;;12.95;6.55;;;8.60;99.90;;;;;;5090322;28;20503;-72
2022/02/15 01:02:53;;;;;;;16.42;6.60;;;8.50;99.90;;;;;;5089202;28;20028;-73
2022/02/15 01:05:19;;;;;;;13.07;6.15;;;8.60;99.90;;;;;;5089579;28;20020;-73
2022/02/15 01:07:44;;;;;;;16.05;6.22;;;8.60;99.90;;;;;;5085181;28;20438;-73
2022/02/15 01:10:10;;;;;;;17.50;6.47;;;8.60;99.90;;;;;;5092273;28;20107;-72
2022/02/15 01:12:36;;;;;;;13.85;7.38;;;8.70;99.90;;;;;;5090685;28;20036;-73
2022/02/15 01:15:02;;;;;;;16.00;6.78;;;8.70;99.90;;;;;;5089075;28;20036;-72
2022/02/15 01:17:28;;;;;;;15.52;6.63;;;8.70;99.90;;;;;;5092808;28;20038;-72
2022/02/15 01:19:54;;;;;;;11.85;6.68;;;8.70;99.90;;;;;;5088084;28;20043;-73
2022/02/15 01:22:19;;;;;;;15.85;7.10;;;8.70;99.90;;;;;;5090479;28;20431;-72
2022/02/15 01:24:45;;;;;;;13.77;7.65;;;8.70;99.90;;;;;;5089951;28;20039;-73
2022/02/15 01:27:10;;;;;;;18.98;7.57;;;8.80;99.90;;;;;;5090120;28;20438;-72
2022/02/15 01:29:36;;;;;;;18.77;8.02;;;8.70;99.90;;;;;;5091410;28;20036;-72
2022/02/15 01:32:02;;;;;;;14.48;7.18;;;8.70;99.90;;;;;;5090510;28;20024;-73
2022/02/15 01:34:27;;;;;;;15.57;7.78;;;8.70;99.90;;;;;;5091397;28;20477;-72
2022/02/15 01:36:53;;;;;;;19.88;8.48;;;8.70;99.90;;;;;;5089718;28;20028;-72
2022/02/15 01:39:19;;;;;;;17.88;7.68;;;8.70;99.90;;;;;;5084062;28;20465;-73
2022/02/15 01:41:44;;;;;;;17.58;8.20;;;8.70;99.90;;;;;;5092891;28;20028;-73
2022/02/15 01:44:10;;;;;;;14.35;7.00;;;8.70;99.90;;;;;;5088070;28;20032;-72
2022/02/15 01:46:38;;;;;;;13.93;7.63;;;8.70;99.90;;;;;;5085966;28;20028;-72
2022/02/15 01:49:04;;;;;;;13.38;7.63;;;8.70;99.90;;;;;;5088964;28;20502;-73
2022/02/15 01:51:30;;;;;;;19.52;8.10;;;8.70;99.90;;;;;;5088725;28;20051;-73
2022/02/15 01:53:55;;;;;;;16.42;8.13;;;8.70;99.90;;;;;;5089991;28;20044;-73
2022/02/15 01:56:22;;;;;;;20.23;8.73;;;8.60;99.90;;;;;;5090852;28;20465;-73
2022/02/15 01:58:48;;;;;;;11.57;7.18;;;8.70;99.90;;;;;;5084816;28;20073;-73
2022/02/15 02:01:14;;;;;;;14.88;7.07;;;8.80;99.90;;;;;;5087711;28;20032;-72
2022/02/15 02:03:39;;;;;;;16.55;7.63;;;8.80;99.90;;;;;;5092554;28;20020;-73
2022/02/15 02:06:05;;;;;;;12.77;7.10;;;8.80;99.90;;;;;;5082495;28;20338;-72
2022/02/15 02:08:33;;;;;;;15.93;7.60;;;8.90;99.90;;;;;;5089826;28;20479;-73
2022/02/15 02:11:00;;;;;;;17.90;6.60;;;8.90;99.90;;;;;;5085145;28;20051;-73
2022/02/15 02:13:26;;;;;;;18.65;6.95;;;8.80;99.90;;;;;;5090001;28;20067;-72
2022/02/15 02:15:52;;;;;;;13.90;6.32;;;8.80;99.90;;;;;;5086891;28;20447;-73
2022/02/15 02:18:19;;;;;;;16.30;6.35;;;8.80;99.90;;;;;;5087693;28;20032;-73
2022/02/15 02:20:45;;;;;;;14.90;6.70;;;8.80;99.90;;;;;;5088151;28;20032;-73
2022/02/15 02:23:12;;;;;;;13.07;6.78;;;8.90;99.90;;;;;;5087552;28;20066;-73
2022/02/15 02:25:38;;;;;;;12.95;7.40;;;8.90;99.90;;;;;;5080830;28;20029;-73
2022/02/15 02:28:04;;;;;;;15.45;6.70;;;8.90;99.90;;;;;;5090469;28;20376;-73
2022/02/15 02:30:30;;;;;;;14.05;6.63;;;9.00;99.90;;;;;;5084342;28;20021;-73
2022/02/15 02:32:56;;;;;;;12.75;5.97;;;9.00;99.90;;;;;;5090643;28;20081;-72
2022/02/15 02:35:24;;;;;;;12.20;6.00;;;8.90;99.90;;;;;;5089371;28;20392;-73
2022/02/15 02:37:50;;;;;;;9.32;5.72;;;9.00;99.90;;;;;;5092608;28;20077;-73
2022/02/15 02:40:16;;;;;;;14.23;6.15;;;8.90;99.90;;;;;;5086593;28;20024;-74
2022/02/15 02:42:42;;;;;;;15.50;6.50;;;8.90;99.90;;;;;;5087297;28;20057;-73
2022/02/15 02:45:11;;;;;;;20.35;6.63;;;8.80;99.90;;;;;;5090904;28;20046;-73
2022/02/15 02:47:37;;;;;;;13.02;6.55;;;8.80;99.90;;;;;;5090387;28;20035;-73
2022/02/15 02:50:04;;;;;;;12.70;6.75;;;8.80;99.90;;;;;;5090268;28;20016;-73
2022/02/15 02:52:30;;;;;;;13.80;7.10;;;8.70;99.90;;;;;;5082532;28;20032;-73
2022/02/15 02:54:57;;;;;;;12.63;6.68;;;8.70;99.90;;;;;;5085152;28;20626;-73
2022/02/15 02:57:23;;;;;;;16.38;7.43;;;8.70;99.90;;;;;;5090506;28;20396;-73
2022/02/15 02:59:49;;;;;;;14.93;7.88;;;8.70;99.90;;;;;;5087146;28;20028;-73
2022/02/15 03:02:15;;;;;;;18.52;8.23;;;8.70;99.90;;;;;;5090466;28;20033;-72
2022/02/15 03:04:42;;;;;;;13.43;6.70;;;8.70;99.90;;;;;;5090499;28;20028;-73
2022/02/15 03:07:08;;;;;;;13.95;7.20;;;8.70;99.90;;;;;;5083526;28;20093;-73
2022/02/15 03:09:33;;;;;;;16.67;8.05;;;8.60;99.90;;;;;;5085009;28;20350;-73
2022/02/15 03:11:59;;;;;;;13.65;7.68;;;8.70;99.90;;;;;;5086804;28;20532;-73
2022/02/15 03:14:25;;;;;;;15.82;7.78;;;8.60;99.90;;;;;;5094153;28;20101;-73
2022/02/15 03:16:51;;;;;;;14.98;7.57;;;8.60;99.90;;;;;;5091421;28;20377;-73
2022/02/15 03:19:17;;;;;;;14.32;7.93;;;8.50;99.90;;;;;;5090687;28;20031;-73
2022/02/15 03:21:43;;;;;;;18.80;7.75;;;8.50;99.90;;;;;;5091404;28;20028;-73
2022/02/15 03:24:09;;;;;;;11.82;6.60;;;8.50;99.90;;;;;;5088401;28;20070;-73
2022/02/15 03:26:35;;;;;;;11.20;7.07;;;8.40;99.90;;;;;;5090856;28;20056;-72
2022/02/15 03:29:01;;;;;;;11.55;7.18;;;8.40;99.90;;;;;;5087757;28;20032;-72
2022/02/15 03:31:27;;;;;;;12.77;7.45;;;8.30;99.90;;;;;;5092930;28;20046;-72
2022/02/15 03:33:53;;;;;;;12.23;7.00;;;8.30;99.90;;;;;;5091310;28;20039;-73
2022/02/15 03:36:19;;;;;;;15.68;7.78;;;8.20;99.90;;;;;;5091196;28;20487;-72
2022/02/15 03:38:45;;;;;;;12.70;6.38;;;8.30;99.90;;;;;;5092879;28;20092;-72
2022/02/15 03:43:55;;;;;;;7.40;5.28;;;8.50;99.90;;;;;;5089836;28;20052;-72
2022/02/15 03:46:22;;;;;;;9.70;6.45;;;8.50;99.90;;;;;;5095580;28;20392;-72
2022/02/15 03:48:48;;;;;;;12.90;5.75;;;8.50;99.90;;;;;;5091840;28;20036;-72
2022/02/15 03:51:14;;;;;;;9.57;5.82;;;8.50;99.90;;;;;;5087591;28;20084;-72
2022/02/15 03:53:39;;;;;;;10.48;7.00;;;8.50;99.90;;;;;;5089852;28;20040;-72
2022/02/15 03:56:06;;;;;;;11.68;6.70;;;8.50;99.90;;;;;;5087481;28;20092;-72
2022/02/15 03:58:32;;;;;;;12.35;7.50;;;8.50;99.90;;;;;;5093859;28;20086;-72
2022/02/15 04:00:57;;;;;;;14.50;8.00;;;8.60;99.90;;;;;;5086723;28;20020;-72
2022/02/15 04:03:23;;;;;;;15.80;9.13;;;8.60;99.90;;;;;;5093111;28;20031;-72
2022/02/15 04:05:49;;;;;;;17.98;8.65;;;8.50;99.90;;;;;;5086834;28;20511;-72
2022/02/15 04:08:14;;;;;;;16.60;9.48;;;8.50;99.90;;;;;;5092723;28;20039;-72
2022/02/15 04:10:40;;;;;;;18.45;9.35;;;8.50;99.90;;;;;;5088426;28;20067;-72
2022/02/15 04:13:06;;;;;;;21.80;9.15;;;8.50;99.90;;;;;;5091061;28;20044;-72
2022/02/15 04:15:31;;;;;;;18.23;8.77;;;8.50;99.90;;;;;;5087651;28;20085;-72
2022/02/15 04:17:57;;;;;;;21.90;9.35;;;8.50;99.90;;;;;;5089573;28;20038;-72
2022/02/15 04:20:23;;;;;;;16.00;9.05;;;8.50;99.90;;;;;;5089236;28;20032;-72
2022/02/15 04:22:48;;;;;;;16.95;8.25;;;8.50;99.90;;;;;;5088291;28;20036;-72
2022/02/15 04:25:14;;;;;;;18.90;9.27;;;8.50;99.90;;;;;;5089184;28;20035;-72
2022/02/15 04:27:39;;;;;;;17.02;8.40;;;8.50;99.90;;;;;;5090600;28;20531;-72
2022/02/15 04:30:06;;;;;;;21.33;8.77;;;8.50;99.90;;;;;;5092499;28;20151;-72
2022/02/15 04:32:32;;;;;;;20.05;8.82;;;8.40;99.90;;;;;;5092507;28;20032;-73
2022/02/15 04:34:58;;;;;;;21.00;10.57;;;8.50;99.90;;;;;;5093454;28;20111;-73
2022/02/15 04:37:24;;;;;;;22.85;10.32;;;8.40;99.90;;;;;;5091938;28;20438;-73
2022/02/15 04:39:50;;;;;;;16.58;8.82;;;8.40;99.90;;;;;;5092998;28;20017;-73
2022/02/15 04:42:16;;;;;;;19.23;10.85;;;8.40;99.90;;;;;;5086829;28;20028;-73
2022/02/15 04:44:43;;;;;;;17.25;9.45;;;8.40;99.90;;;;;;5085953;28;20472;-73
2022/02/15 04:47:08;;;;;;;22.00;10.25;;;8.30;99.90;;;;;;5091816;28;20020;-73
2022/02/15 04:49:34;;;;;;;19.77;10.60;;;8.20;99.90;;;;;;5086157;28;20119;-73
2022/02/15 04:52:00;;;;;;;19.70;10.68;;;8.30;99.90;;;;;;5090789;28;20039;-73
2022/02/15 04:54:26;;;;;;;27.77;12.90;;;8.30;99.90;;;;;;5087436;28;20074;-74
2022/02/15 04:56:52;;;;;;;25.83;12.10;;;8.30;99.90;;;;;;5090740;28;20554;-73
2022/02/15 04:59:19;;;;;;;26.13;11.48;;;8.30;99.90;;;;;;5086160;28;20111;-73
2022/02/15 05:01:45;;;;;;;23.90;12.75;;;8.30;99.90;;;;;;5091145;28;20027;-73
2022/02/15 05:04:48;;;;;;;22.42;11.90;;;8.30;99.90;;;;;;5092291;28;20051;-73
2022/02/15 05:06:58;;;;;;;28.98;12.35;;;8.30;99.90;;;;;;5093892;28;20028;-73
2022/02/15 05:09:27;;;;;;;27.50;13.95;;;8.30;99.90;;;;;;5086146;28;20036;-73
2022/02/15 05:11:54;;;;;;;28.38;13.82;;;8.30;99.90;;;;;;5087079;28;20138;-73
2022/02/15 05:14:19;;;;;;;22.88;12.45;;;8.30;99.90;;;;;;5090903;28;20400;-73
2022/02/15 05:16:45;;;;;;;24.52;12.52;;;8.30;99.90;;;;;;5087473;28;20016;-74
2022/02/15 05:19:12;;;;;;;22.90;12.85;;;8.20;99.90;;;;;;5089956;28;20036;-73
2022/02/15 05:21:38;;;;;;;27.65;12.77;;;8.20;99.90;;;;;;5093884;28;20016;-73
2022/02/15 05:24:05;;;;;;;25.38;13.07;;;8.20;99.90;;;;;;5092230;28;20391;-73
2022/02/15 05:26:31;;;;;;;26.48;13.25;;;8.20;99.90;;;;;;5092825;28;20043;-73
2022/02/15 05:28:56;;;;;;;24.73;12.60;;;8.20;99.90;;;;;;5090975;28;20472;-72
2022/02/15 05:31:22;;;;;;;25.52;13.60;;;8.30;99.90;;;;;;5090133;28;20036;-73
2022/02/15 05:33:47;;;;;;;22.60;12.65;;;8.30;99.90;;;;;;5086849;28;20089;-74
2022/02/15 05:36:13;;;;;;;22.40;13.02;;;8.20;99.90;;;;;;5088739;28;20032;-73
2022/02/15 05:38:39;;;;;;;24.58;12.05;;;8.20;99.90;;;;;;5088837;28;20481;-73
2022/02/15 05:41:05;;;;;;;25.00;11.63;;;8.20;99.90;;;;;;5088902;28;20093;-74
2022/02/15 05:43:30;;;;;;;22.27;11.32;;;8.30;99.90;;;;;;5090840;28;20115;-73
2022/02/15 05:45:56;;;;;;;21.73;12.32;;;8.30;99.90;;;;;;5087633;28;20031;-73
2022/02/15 05:48:22;;;;;;;22.17;13.55;;;8.40;99.90;;;;;;5083714;28;20052;-73
2022/02/15 05:50:50;;;;;;;24.63;12.95;;;8.30;99.90;;;;;;5087297;28;20081;-73
2022/02/15 05:53:20;;;;;;;26.88;13.63;;;8.40;99.90;;;;;;5081504;28;20037;-73
2022/02/15 05:55:48;;;;;;;24.33;13.15;;;8.40;99.90;;;;;;5088572;28;20031;-73
2022/02/15 05:58:14;;;;;;;30.13;14.20;;;8.40;99.90;;;;;;5090510;28;20059;-73
2022/02/15 06:00:40;;;;;;;25.52;12.60;;;8.40;99.90;;;;;;5083241;28;20028;-74
2022/02/15 06:04:09;;;;;;;29.08;14.90;;;8.30;99.90;;;;;;5092642;28;20361;-73
2022/02/15 06:05:52;;;;;;;26.83;14.43;;;8.40;99.90;;;;;;5088870;28;20028;-73
2022/02/15 06:08:17;;;;;;;30.42;14.27;;;8.40;99.90;;;;;;5090739;28;20519;-73
2022/02/15 06:10:43;;;;;;;35.03;14.30;;;8.40;99.90;;;;;;5084526;28;20023;-73
2022/02/15 06:13:09;;;;;;;34.05;15.02;;;8.40;99.90;;;;;;5089595;28;20123;-73
2022/02/15 06:15:35;;;;;;;29.48;16.15;;;8.40;99.90;;;;;;5086287;28;20048;-73
2022/02/15 06:18:00;;;;;;;36.95;16.05;;;8.30;99.90;;;;;;5088689;28;20032;-73
2022/02/15 06:20:26;;;;;;;31.67;15.80;;;8.30;99.90;;;;;;5089348;28;20073;-73
2022/02/15 06:22:52;;;;;;;37.58;17.40;;;8.30;99.90;;;;;;5092866;28;20062;-73
2022/02/15 06:25:17;;;;;;;36.67;18.77;;;8.30;99.90;;;;;;5084533;28;20469;-73
2022/02/15 06:27:43;;;;;;;34.85;16.40;;;8.30;99.90;;;;;;5088555;28;20079;-73
2022/02/15 06:30:09;;;;;;;38.65;18.13;;;8.30;99.90;;;;;;5091010;28;20081;-73
2022/02/15 06:32:35;;;;;;;38.83;17.70;;;8.30;99.90;;;;;;5089545;28;20893;-73
2022/02/15 06:35:01;;;;;;;38.33;17.42;;;8.30;99.90;;;;;;5089794;28;20032;-74
2022/02/15 06:37:27;;;;;;;34.70;17.90;;;8.30;99.90;;;;;;5091667;28;20488;-73
2022/02/15 06:39:52;;;;;;;27.30;16.83;;;8.30;99.90;;;;;;5088346;28;20032;-73
2022/02/15 06:42:18;;;;;;;29.98;16.05;;;8.20;99.90;;;;;;5084011;28;20392;-73
2022/02/15 06:44:44;;;;;;;29.90;15.88;;;8.20;99.90;;;;;;5091030;28;20036;-73
2022/02/15 06:47:09;;;;;;;28.30;15.00;;;8.20;99.90;;;;;;5090060;28;20085;-73
2022/02/15 06:49:35;;;;;;;33.90;15.13;;;8.20;99.90;;;;;;5094805;28;20424;-73
2022/02/15 06:52:01;;;;;;;28.10;15.55;;;8.20;99.90;;;;;;5088248;28;20337;-73
2022/02/15 06:54:27;;;;;;;26.33;13.27;;;8.20;99.90;;;;;;5093039;28;20028;-73
2022/02/15 06:56:53;;;;;;;33.33;15.65;;;8.20;99.90;;;;;;5092523;28;20086;-73
2022/02/15 06:59:19;;;;;;;24.85;14.25;;;8.10;99.90;;;;;;5089448;28;20012;-73
2022/02/15 07:01:44;;;;;;;25.42;13.40;;;8.20;99.90;;;;;;5090660;28;20479;-73
2022/02/15 07:04:11;;;;;;;23.85;13.77;;;8.20;99.90;;;;;;5085461;28;20036;-73
2022/02/15 07:06:38;;;;;;;26.63;14.23;;;8.10;99.90;;;;;;5093245;28;20400;-73
2022/02/15 07:09:03;;;;;;;23.25;12.43;;;8.20;99.90;;;;;;5088856;28;20035;-73
2022/02/15 07:11:29;;;;;;;18.67;11.70;;;8.10;99.90;;;;;;5091702;28;20028;-73
2022/02/15 07:13:55;;;;;;;24.25;12.80;;;8.20;99.90;;;;;;5088355;28;20127;-73
2022/02/15 07:16:20;;;;;;;22.50;11.43;;;8.20;99.90;;;;;;5092170;28;20060;-73
2022/02/15 07:18:46;;;;;;;22.48;11.32;;;8.20;99.90;;;;;;5093169;28;20472;-73
2022/02/15 07:21:12;;;;;;;23.10;11.90;;;8.30;99.90;;;;;;5095848;28;20056;-73
2022/02/15 07:23:37;;;;;;;22.25;10.73;;;8.20;99.90;;;;;;5090824;28;20523;-73
2022/02/15 07:26:03;;;;;;;22.30;10.43;;;8.20;99.90;;;;;;5093339;28;20551;-72
2022/02/15 07:28:29;;;;;;;18.05;10.50;;;8.20;99.90;;;;;;5091516;28;20392;-72
2022/02/15 07:30:55;;;;;;;18.83;9.70;;;8.20;99.90;;;;;;5092367;28;20027;-73
2022/02/15 07:33:21;;;;;;;19.08;10.55;;;8.30;99.90;;;;;;5090193;28;20565;-72
2022/02/15 07:35:47;;;;;;;19.98;12.35;;;8.30;99.90;;;;;;5092560;28;20032;-73
2022/02/15 07:38:13;;;;;;;20.17;11.90;;;8.30;99.90;;;;;;5080940;28;20073;-73
2022/02/15 07:40:38;;;;;;;19.02;9.65;;;8.30;99.90;;;;;;5089724;28;20508;-73
2022/02/15 07:43:04;;;;;;;21.10;9.82;;;8.30;99.90;;;;;;5088435;28;20480;-73
2022/02/15 07:45:29;;;;;;;18.42;10.07;;;8.20;99.90;;;;;;5087599;28;20107;-74
2022/02/15 07:47:55;;;;;;;24.83;10.60;;;8.20;99.90;;;;;;5093303;28;20385;-75
2022/02/15 07:50:22;;;;;;;16.77;10.32;;;8.10;99.90;;;;;;5084751;28;20028;-75
2022/02/15 07:52:50;;;;;;;21.17;12.32;;;8.10;99.90;;;;;;5091533;28;20032;-75
2022/02/15 07:55:18;;;;;;;17.38;10.98;;;8.20;99.90;;;;;;5091170;28;20066;-75
2022/02/15 07:57:44;;;;;;;21.38;13.00;;;8.20;99.90;;;;;;5085629;28;20075;-75
2022/02/15 08:00:10;;;;;;;28.67;13.07;;;8.20;99.90;;;;;;5091357;28;20055;-74
2022/02/15 08:02:36;;;;;;;21.20;12.50;;;8.20;99.90;;;;;;5084895;28;20063;-75
2022/02/15 08:05:02;;;;;;;29.02;14.90;;;8.20;99.90;;;;;;5093565;28;20502;-73
2022/02/15 08:07:32;;;;;;;21.40;11.60;;;8.20;99.90;;;;;;5086861;28;20020;-74
2022/02/15 08:09:59;;;;;;;28.35;12.65;;;8.10;99.90;;;;;;5089340;28;20111;-74
2022/02/15 08:12:25;;;;;;;22.80;13.02;;;8.20;99.90;;;;;;5084885;28;20031;-74
2022/02/15 08:14:51;;;;;;;24.42;12.68;;;8.20;99.90;;;;;;5090522;28;20040;-75
2022/02/15 08:17:16;;;;;;;26.58;12.63;;;8.10;99.90;;;;;;5090675;28;20016;-75
2022/02/15 08:19:42;;;;;;;24.17;12.30;;;8.10;99.90;;;;;;5087814;28;20107;-74
2022/02/15 08:22:08;;;;;;;24.50;12.57;;;8.00;99.90;;;;;;5090887;28;20016;-74
2022/02/15 08:24:34;;;;;;;26.75;13.07;;;8.10;99.90;;;;;;5086072;28;20081;-74
2022/02/15 08:27:01;;;;;;;23.50;11.15;;;8.20;99.90;;;;;;5092826;28;20028;-75
2022/02/15 08:29:28;;;;;;;24.30;13.27;;;8.20;99.90;;;;;;5091325;28;20024;-75
2022/02/15 08:31:54;;;;;;;26.90;12.15;;;8.30;99.90;;;;;;5085908;28;20701;-76
2022/02/15 08:34:20;;;;;;;19.17;10.98;;;8.40;99.90;;;;;;5091699;28;20075;-73
2022/02/15 08:36:46;;;;;;;24.50;12.07;;;8.40;99.90;;;;;;5085873;28;20035;-74
2022/02/15 08:39:15;;;;;;;23.25;11.18;;;8.30;99.90;;;;;;5092720;28;20036;-74
2022/02/15 08:41:41;;;;;;;21.10;9.82;;;8.40;99.90;;;;;;5089387;28;20507;-74
2022/02/15 08:44:07;;;;;;;20.75;9.63;;;8.40;99.90;;;;;;5086946;28;20033;-74
2022/02/15 08:46:33;;;;;;;24.58;10.85;;;8.50;99.90;;;;;;5086373;28;20039;-75
2022/02/15 08:48:58;;;;;;;19.98;10.05;;;8.60;99.90;;;;;;5088126;28;20091;-75
2022/02/15 08:51:24;;;;;;;16.95;9.80;;;8.60;99.90;;;;;;5087478;28;20388;-75
2022/02/15 08:53:51;;;;;;;18.35;9.25;;;8.60;99.90;;;;;;5092027;28;20032;-74
2022/02/15 08:56:18;;;;;;;21.13;9.45;;;8.70;99.90;;;;;;5084690;28;20096;-74
2022/02/15 08:58:43;;;;;;;15.05;8.18;;;8.70;99.90;;;;;;5089144;28;20044;-74
2022/02/15 09:01:10;;;;;;;20.10;8.40;;;8.70;99.90;;;;;;5084392;28;20025;-75
2022/02/15 09:03:35;;;;;;;19.75;8.40;;;8.70;99.90;;;;;;5088983;28;20024;-74
2022/02/15 09:06:01;;;;;;;16.73;8.38;;;8.70;99.90;;;;;;5087983;28;20512;-74
2022/02/15 09:08:27;;;;;;;22.23;8.73;;;8.70;99.90;;;;;;5089608;28;20024;-74
2022/02/15 09:10:53;;;;;;;18.77;8.93;;;8.80;99.90;;;;;;5085790;28;20020;-74
2022/02/15 09:13:19;;;;;;;13.32;7.63;;;9.00;99.90;;;;;;5089247;28;20036;-74
2022/02/15 09:15:44;;;;;;;17.33;7.88;;;9.00;99.90;;;;;;5087972;28;20035;-73
2022/02/15 09:18:10;;;;;;;18.08;9.05;;;8.90;99.90;;;;;;5089853;28;20028;-74
2022/02/15 09:20:36;;;;;;;22.30;8.55;;;9.00;99.90;;;;;;5087201;28;20034;-74
2022/02/15 09:23:02;;;;;;;17.67;8.63;;;9.00;99.90;;;;;;5092143;28;20032;-74
2022/02/15 09:25:28;;;;;;;15.18;8.40;;;9.10;99.90;;;;;;5082895;28;20023;-73
2022/02/15 09:27:54;;;;;;;15.13;8.55;;;9.10;99.90;;;;;;5088052;28;20024;-74
2022/02/15 09:30:20;;;;;;;20.27;8.70;;;9.00;99.90;;;;;;5083575;28;20110;-74
2022/02/15 09:32:46;;;;;;;16.88;9.02;;;9.00;99.90;;;;;;5086896;28;20426;-73
2022/02/15 09:35:11;;;;;;;15.07;8.52;;;9.00;99.90;;;;;;5090785;28;20057;-74
2022/02/15 09:37:37;;;;;;;16.23;8.52;;;8.90;99.90;;;;;;5083389;28;20075;-73
2022/02/15 09:40:05;;;;;;;13.43;8.55;;;8.90;99.90;;;;;;5086289;28;20025;-73
2022/02/15 09:42:30;;;;;;;15.88;8.65;;;8.90;99.90;;;;;;5083187;28;20636;-74
2022/02/15 09:44:56;;;;;;;13.43;7.63;;;8.90;99.90;;;;;;5085582;28;20035;-73
2022/02/15 09:47:24;;;;;;;12.98;6.15;;;8.90;99.90;;;;;;5086834;28;20047;-74
2022/02/15 09:49:51;;;;;;;14.10;5.80;;;8.90;99.90;;;;;;5082837;28;20484;-77
2022/02/15 09:52:23;;;;;;;18.50;6.03;;;9.10;99.90;;;;;;5092006;28;20140;-75
2022/02/15 09:54:52;;;;;;;9.65;5.82;;;9.10;99.90;;;;;;5089168;28;20036;-77
2022/02/15 09:57:21;;;;;;;16.83;6.60;;;9.20;99.90;;;;;;5082808;28;20024;-75
2022/02/15 09:59:47;;;;;;;10.75;4.95;;;9.40;99.90;;;;;;5084477;28;20485;-75
2022/02/15 10:02:24;;;;;;;14.68;4.68;;;9.40;99.90;;;;;;5083572;28;20110;-74
2022/02/15 10:04:54;;;;;;;11.75;4.75;;;9.30;99.90;;;;;;5079932;28;20031;-74
2022/02/15 10:07:20;;;;;;;11.32;4.30;;;9.20;99.90;;;;;;5087898;28;20089;-74
2022/02/15 10:09:56;;;;;;;12.32;4.47;;;9.20;99.90;;;;;;5090411;28;20036;-75
2022/02/15 10:12:25;;;;;;;12.07;4.20;;;9.20;99.90;;;;;;5086941;28;20013;-74
2022/02/15 10:14:53;;;;;;;11.20;4.43;;;9.10;99.90;;;;;;5089614;28;20178;-74
2022/02/15 10:17:21;;;;;;;11.55;3.67;;;9.20;99.90;;;;;;5087907;28;20031;-73
2022/02/15 10:19:49;;;;;;;14.88;3.90;;;9.40;99.90;;;;;;5086570;28;20028;-74
2022/02/15 10:22:17;;;;;;;15.82;3.90;;;9.60;99.90;;;;;;5085581;28;20040;-75
2022/02/15 10:24:50;;;;;;;12.23;4.07;;;9.70;99.90;;;;;;5087968;28;20020;-75
2022/02/15 10:27:16;;;;;;;8.95;2.95;;;9.80;99.90;;;;;;5082127;28;20029;-75
2022/02/15 10:29:44;;;;;;;9.23;2.92;;;9.90;99.90;;;;;;5085294;28;20028;-75
2022/02/15 10:32:14;;;;;;;12.20;3.03;;;10.10;99.90;;;;;;5085972;28;20027;-75
2022/02/15 10:34:46;;;;;;;10.57;3.22;;;10.30;99.90;;;;;;5083248;28;20066;-74
2022/02/15 10:37:14;;;;;;;6.47;2.53;;;10.40;99.90;;;;;;5084385;28;20043;-74
2022/02/15 10:40:04;;;;;;;6.40;2.50;;;10.50;99.90;;;;;;5085787;28;20016;-74
2022/02/15 10:42:31;;;;;;;3.90;2.47;;;10.60;99.90;;;;;;5083148;28;20044;-76
2022/02/15 10:45:00;;;;;;;4.97;2.08;;;10.70;99.90;;;;;;5086958;28;20430;-76
2022/02/15 10:47:31;;;;;;;8.63;2.13;;;10.70;99.90;;;;;;5084324;28;20032;-75
2022/02/15 10:50:06;;;;;;;5.63;2.60;;;10.60;99.90;;;;;;5084948;28;20028;-76
2022/02/15 10:52:32;;;;;;;10.55;2.90;;;10.70;99.90;;;;;;5083907;28;20041;-75
2022/02/15 10:54:58;;;;;;;8.45;2.40;;;10.80;99.90;;;;;;5085251;28;20024;-76
2022/02/15 10:57:24;;;;;;;6.15;1.80;;;11.10;99.90;;;;;;5081685;28;20022;-76
2022/02/15 10:59:55;;;;;;;7.97;2.65;;;11.00;99.90;;;;;;5089815;28;20422;-76
2022/02/15 11:02:30;;;;;;;10.95;1.83;;;11.10;99.90;;;;;;5082548;28;20057;-76
2022/02/15 11:05:00;;;;;;;6.30;1.75;;;11.10;99.90;;;;;;5089521;28;20027;-76
2022/02/15 11:07:28;;;;;;;7.50;1.80;;;11.30;99.90;;;;;;5100196;28;20024;-76
2022/02/15 11:10:25;;;;;;;7.43;1.70;;;11.40;99.90;;;;;;5088486;28;20036;-75
2022/02/15 11:12:57;;;;;;;4.88;1.42;;;11.30;99.90;;;;;;5088929;28;20542;-78
2022/02/15 11:15:24;;;;;;;;;;;11.30;99.90;;;;;;5083869;28;20066;-75
2022/02/15 11:17:55;;;;;;;5.38;1.40;;;11.20;99.90;;;;;;5086144;28;19965;-79
2022/02/15 11:20:24;;;;;;;3.70;1.30;;;11.10;99.90;;;;;;5083262;28;20048;-79
2022/02/15 11:22:53;;;;;;;5.93;1.33;;;11.00;99.90;;;;;;5088032;28;20078;-79
2022/02/15 11:25:37;;;;;;;7.30;1.33;;;11.10;99.90;;;;;;5080913;28;20025;-78
2022/02/15 11:28:08;;;;;;;4.03;1.60;;;11.10;99.90;;;;;;5088252;28;20448;-79
2022/02/15 11:30:53;;;;;;;7.07;1.50;;;11.20;99.90;;;;;;5080469;28;20472;-78
2022/02/15 11:33:28;;;;;;;4.72;1.20;;;11.10;99.90;;;;;;5088618;28;20029;-78
2022/02/15 11:35:56;;;;;;;5.68;1.45;;;11.10;99.90;;;;;;5089631;28;20081;-79
2022/02/15 11:38:23;;;;;;;4.10;1.58;;;11.00;99.90;;;;;;5089090;28;20028;-78
2022/02/15 11:41:19;;;;;;;5.55;1.08;;;11.10;99.90;;;;;;5087829;28;20107;-79
2022/02/15 11:44:00;;;;;;;3.30;1.10;;;10.90;99.90;;;;;;5082172;28;20135;-78
2022/02/15 11:46:43;;;;;;;6.72;1.33;;;10.90;99.90;;;;;;5089991;28;20052;-79
2022/02/15 11:49:08;;;;;;;6.18;1.70;;;10.80;99.90;;;;;;5088810;28;20028;-78
2022/02/15 11:51:34;;;;;;;7.00;1.65;;;11.00;99.90;;;;;;5093613;28;20020;-79
2022/02/15 11:54:01;;;;;;;5.45;1.13;;;10.90;99.90;;;;;;5088373;28;20070;-79
2022/02/15 11:56:27;;;;;;;5.57;1.00;;;10.80;99.90;;;;;;5092745;28;20027;-78
2022/02/15 11:58:53;;;;;;;3.50;0.98;;;10.80;99.90;;;;;;5090067;28;20028;-79
2022/02/15 12:01:26;;;;;;;6.70;1.27;;;11.00;99.90;;;;;;5087913;28;20380;-78
2022/02/15 12:03:53;;;;;;;7.10;1.67;;;11.00;99.90;;;;;;5093241;28;20032;-78
2022/02/15 12:06:19;;;;;;;5.93;1.60;;;11.10;99.90;;;;;;5092989;28;20468;-79
2022/02/15 12:08:55;;;;;;;3.78;1.05;;;11.10;99.90;;;;;;5091629;28;20028;-78
2022/02/15 12:11:40;;;;;;;4.88;1.00;;;11.20;99.90;;;;;;5092692;28;20031;-78
2022/02/15 12:14:27;;;;;;;3.33;1.02;;;11.30;99.90;;;;;;5086480;28;20041;-78
2022/02/15 12:16:57;;;;;;;6.72;1.48;;;11.40;99.90;;;;;;5092574;28;20057;-79
2022/02/15 12:19:38;;;;;;;5.88;1.20;;;11.40;99.90;;;;;;5084246;28;20103;-78
2022/02/15 12:22:17;;;;;;;5.60;1.30;;;11.40;99.90;;;;;;5092993;28;20065;-79
2022/02/15 12:24:43;;;;;;;3.80;1.13;;;11.30;99.90;;;;;;5086762;28;20047;-79
2022/02/15 12:27:09;;;;;;;3.92;1.40;;;11.40;99.90;;;;;;5089468;28;20480;-77
2022/02/15 12:29:35;;;;;;;6.55;1.02;;;11.30;99.90;;;;;;5087650;28;20020;-78
2022/02/15 12:32:08;;;;;;;6.03;1.00;;;11.30;99.90;;;;;;5088472;28;20462;-78
2022/02/15 12:34:34;;;;;;;2.50;1.17;;;11.40;99.90;;;;;;5086460;28;20035;-79
2022/02/15 12:37:01;;;;;;;3.40;1.10;;;11.40;99.90;;;;;;5090028;28;20035;-79
2022/02/15 12:39:33;;;;;;;3.35;1.02;;;11.40;99.90;;;;;;5091860;28;20055;-78
2022/02/15 12:41:59;;;;;;;2.63;1.20;;;11.50;99.90;;;;;;5085721;28;20024;-78
2022/02/15 12:44:25;;;;;;;4.65;1.35;;;11.60;99.90;;;;;;5092241;28;20039;-77
2022/02/15 12:46:51;;;;;;;6.13;1.33;;;11.80;99.90;;;;;;5087293;28;20028;-78